Private Wetterstation Sandau
Wetterdaten: Woche 13.08.12 - 19.08.12 (KW33)
Datum Zeit Temp. A. Feuchte A. Luftdruck Regen Wind Richtung Taupunkt Windchill
13.08.2012 00:00 13,8 C 73 % 1020,5 hPa 0,0 l/m 3,6 km/h (1 Bft) O-NO 9,1 C 13,8 C
13.08.2012 01:00 13,2 C 77 % 1020,5 hPa 0,0 l/m 2,7 km/h (1 Bft) O-NO 9,2 C 13,2 C
13.08.2012 02:00 12,5 C 80 % 1020,2 hPa 0,0 l/m 4,3 km/h (1 Bft) O-NO 9,1 C 12,5 C
13.08.2012 03:00 11,9 C 83 % 1020,0 hPa 0,0 l/m 5,1 km/h (1 Bft) O-NO 9,0 C 11,9 C
13.08.2012 04:00 11,2 C 85 % 1020,0 hPa 0,0 l/m 5,1 km/h (1 Bft) O 8,8 C 11,2 C
13.08.2012 05:00 10,7 C 86 % 1019,9 hPa 0,0 l/m 4,7 km/h (1 Bft) O 8,5 C 10,7 C
13.08.2012 06:00 10,6 C 87 % 1019,9 hPa 0,0 l/m 5,3 km/h (1 Bft) O-NO 8,5 C 10,6 C
13.08.2012 07:00 12,7 C 82 % 1020,0 hPa 0,0 l/m 5,4 km/h (1 Bft) O-NO 9,6 C 12,7 C
13.08.2012 08:00 14,2 C 78 % 1020,2 hPa 0,0 l/m 5,6 km/h (1 Bft) O 10,4 C 14,2 C
13.08.2012 09:00 16,8 C 71 % 1020,2 hPa 0,0 l/m 5,5 km/h (1 Bft) SO 11,3 C 16,8 C
13.08.2012 10:00 19,2 C 61 % 1020,2 hPa 0,0 l/m 6,6 km/h (2 Bft) O-SO 11,4 C 19,2 C
13.08.2012 11:00 21,3 C 53 % 1019,8 hPa 0,0 l/m 7,2 km/h (2 Bft) O-NO 11,2 C 21,3 C
13.08.2012 12:00 22,4 C 45 % 1019,7 hPa 0,0 l/m 7,5 km/h (2 Bft) O-SO 9,7 C 22,4 C
13.08.2012 13:00 22,3 C 44 % 1019,4 hPa 0,0 l/m 9,7 km/h (2 Bft) S-SO 9,5 C 22,3 C
13.08.2012 14:00 22,7 C 42 % 1019,2 hPa 0,0 l/m 11,4 km/h (2 Bft) SO 9,1 C 22,7 C
13.08.2012 15:00 22,6 C 40 % 1018,9 hPa 0,0 l/m 9,1 km/h (2 Bft) SO 8,4 C 22,6 C
13.08.2012 16:00 22,9 C 39 % 1018,5 hPa 0,0 l/m 6,9 km/h (2 Bft) O-SO 8,2 C 22,9 C
13.08.2012 17:00 22,9 C 39 % 1018,2 hPa 0,0 l/m 5,8 km/h (2 Bft) SO 8,0 C 22,9 C
13.08.2012 18:00 23,2 C 38 % 1018,1 hPa 0,0 l/m 5,3 km/h (1 Bft) O-SO 7,9 C 23,2 C
13.08.2012 19:00 21,8 C 41 % 1018,2 hPa 0,0 l/m 4,7 km/h (1 Bft) O-SO 8,1 C 21,8 C
13.08.2012 20:00 19,6 C 49 % 1018,2 hPa 0,0 l/m 2,5 km/h (1 Bft) O-SO 8,6 C 19,6 C
13.08.2012 21:00 17,5 C 58 % 1018,4 hPa 0,0 l/m 1,2 km/h (1 Bft) O-NO 9,0 C 17,5 C
13.08.2012 22:00 16,0 C 63 % 1018,7 hPa 0,0 l/m 1,9 km/h (1 Bft) O-SO 8,9 C 16,0 C
13.08.2012 23:00 15,1 C 70 % 1018,9 hPa 0,0 l/m 2,1 km/h (1 Bft) O-SO 9,6 C 15,1 C
14.08.2012 00:00 14,4 C 77 % 1019,1 hPa 0,0 l/m 3,0 km/h (1 Bft) O 10,3 C 14,4 C
14.08.2012 01:00 13,8 C 81 % 1019,0 hPa 0,0 l/m 3,4 km/h (1 Bft) O-NO 10,6 C 13,8 C
14.08.2012 02:00 13,1 C 84 % 1018,9 hPa 0,0 l/m 3,7 km/h (1 Bft) O 10,4 C 13,1 C
14.08.2012 03:00 12,6 C 86 % 1018,6 hPa 0,0 l/m 5,0 km/h (1 Bft) O 10,3 C 12,6 C
14.08.2012 04:00 12,1 C 88 % 1018,5 hPa 0,0 l/m 4,2 km/h (1 Bft) O-NO 10,1 C 12,1 C
14.08.2012 05:00 11,7 C 89 % 1018,4 hPa 0,0 l/m 5,4 km/h (1 Bft) O-NO 9,9 C 11,7 C
14.08.2012 06:00 11,7 C 90 % 1018,4 hPa 0,0 l/m 4,3 km/h (1 Bft) O-NO 10,1 C 11,7 C
14.08.2012 07:00 13,9 C 84 % 1018,6 hPa 0,0 l/m 5,8 km/h (2 Bft) O-NO 11,1 C 13,9 C
14.08.2012 08:00 15,4 C 81 % 1018,5 hPa 0,0 l/m 4,9 km/h (1 Bft) O-SO 12,0 C 15,4 C
14.08.2012 09:00 17,8 C 74 % 1018,6 hPa 0,0 l/m 3,2 km/h (1 Bft) O-SO 13,1 C 17,8 C
14.08.2012 10:00 19,7 C 67 % 1018,8 hPa 0,0 l/m 5,5 km/h (1 Bft) O-SO 13,4 C 19,7 C
14.08.2012 11:00 21,8 C 57 % 1018,7 hPa 0,0 l/m 4,4 km/h (1 Bft) SO 13,0 C 21,8 C
14.08.2012 12:00 23,1 C 48 % 1018,4 hPa 0,0 l/m 3,8 km/h (1 Bft) O-NO 11,6 C 23,1 C
14.08.2012 13:00 23,4 C 47 % 1018,0 hPa 0,0 l/m 6,1 km/h (2 Bft) NO 11,3 C 23,4 C
14.08.2012 14:00 24,2 C 43 % 1017,5 hPa 0,0 l/m 6,3 km/h (2 Bft) O-NO 10,8 C 24,2 C
14.08.2012 15:00 25,1 C 39 % 1017,1 hPa 0,0 l/m 4,3 km/h (1 Bft) SO 9,9 C 25,1 C
14.08.2012 16:00 25,8 C 38 % 1016,9 hPa 0,0 l/m 4,3 km/h (1 Bft) O-SO 10,2 C 25,8 C
14.08.2012 17:00 24,9 C 40 % 1017,1 hPa 0,0 l/m 4,3 km/h (1 Bft) O-NO 10,3 C 24,9 C
14.08.2012 18:00 23,9 C 42 % 1016,8 hPa 0,0 l/m 5,4 km/h (1 Bft) NO 10,3 C 23,9 C
14.08.2012 19:00 22,6 C 46 % 1017,0 hPa 0,0 l/m 3,6 km/h (1 Bft) O-SO 10,4 C 22,6 C
14.08.2012 20:00 20,6 C 51 % 1017,4 hPa 0,0 l/m 1,4 km/h (1 Bft) O-NO 10,1 C 20,6 C
14.08.2012 21:00 18,5 C 57 % 1017,8 hPa 0,0 l/m 2,8 km/h (1 Bft) O-NO 9,9 C 18,5 C
14.08.2012 22:00 17,1 C 63 % 1018,2 hPa 0,0 l/m 4,6 km/h (1 Bft) O-NO 10,0 C 17,1 C
14.08.2012 23:00 15,7 C 70 % 1018,5 hPa 0,0 l/m 3,8 km/h (1 Bft) O-SO 10,2 C 15,7 C
15.08.2012 00:00 14,8 C 74 % 1018,7 hPa 0,0 l/m 3,4 km/h (1 Bft) O-SO 10,2 C 14,8 C
15.08.2012 01:00 14,0 C 78 % 1018,6 hPa 0,0 l/m 4,2 km/h (1 Bft) O-NO 10,2 C 14,0 C
15.08.2012 02:00 13,4 C 80 % 1018,6 hPa 0,0 l/m 2,9 km/h (1 Bft) O 10,0 C 13,4 C
15.08.2012 03:00 12,7 C 82 % 1018,4 hPa 0,0 l/m 2,4 km/h (1 Bft) O-SO 9,7 C 12,7 C
15.08.2012 04:00 12,0 C 85 % 1018,0 hPa 0,0 l/m 3,2 km/h (1 Bft) O-NO 9,5 C 12,0 C
15.08.2012 05:00 11,4 C 85 % 1018,0 hPa 0,0 l/m 0,6 km/h (0 Bft) O-SO 9,0 C 11,4 C
15.08.2012 06:00 11,3 C 86 % 1018,3 hPa 0,0 l/m 0,1 km/h (0 Bft) O-SO 9,0 C 11,3 C
15.08.2012 07:00 14,2 C 80 % 1018,3 hPa 0,0 l/m 3,9 km/h (1 Bft) O 10,8 C 14,2 C
15.08.2012 08:00 15,2 C 80 % 1018,3 hPa 0,0 l/m 5,1 km/h (1 Bft) O-SO 11,8 C 15,2 C
15.08.2012 09:00 17,6 C 74 % 1018,6 hPa 0,0 l/m 6,6 km/h (2 Bft) O-NO 12,8 C 17,6 C
15.08.2012 10:00 19,3 C 64 % 1018,6 hPa 0,0 l/m 7,1 km/h (2 Bft) O-NO 12,4 C 19,3 C
15.08.2012 11:00 20,6 C 57 % 1018,3 hPa 0,0 l/m 8,2 km/h (2 Bft) O-NO 11,8 C 20,6 C
15.08.2012 12:00 21,3 C 54 % 1017,7 hPa 0,0 l/m 6,6 km/h (2 Bft) O-SO 11,5 C 21,3 C
15.08.2012 13:00 23,3 C 47 % 1017,1 hPa 0,0 l/m 5,2 km/h (1 Bft) NO 11,4 C 23,3 C
15.08.2012 14:00 24,1 C 45 % 1016,6 hPa 0,0 l/m 5,3 km/h (1 Bft) SO 11,3 C 24,1 C
15.08.2012 15:00 24,4 C 44 % 1016,0 hPa 0,0 l/m 7,9 km/h (2 Bft) O-SO 11,4 C 24,4 C
15.08.2012 16:00 25,2 C 42 % 1015,7 hPa 0,0 l/m 6,3 km/h (2 Bft) O-SO 11,5 C 25,2 C
15.08.2012 17:00 24,6 C 44 % 1015,4 hPa 0,0 l/m 6,7 km/h (2 Bft) O-NO 11,4 C 24,6 C
15.08.2012 18:00 24,1 C 44 % 1015,3 hPa 0,0 l/m 7,3 km/h (2 Bft) O-NO 11,2 C 24,1 C
15.08.2012 19:00 22,9 C 48 % 1015,2 hPa 0,0 l/m 3,9 km/h (1 Bft) O-SO 11,1 C 22,9 C
15.08.2012 20:00 20,7 C 53 % 1015,0 hPa 0,0 l/m 5,1 km/h (1 Bft) SO 10,7 C 20,7 C
15.08.2012 21:00 19,2 C 57 % 1015,5 hPa 0,0 l/m 1,5 km/h (1 Bft) O-SO 10,3 C 19,2 C
15.08.2012 22:00 17,6 C 62 % 1015,5 hPa 0,0 l/m 2,3 km/h (1 Bft) O-SO 10,3 C 17,6 C
15.08.2012 23:00 16,3 C 68 % 1015,4 hPa 0,0 l/m 2,9 km/h (1 Bft) O-SO 10,4 C 16,3 C
16.08.2012 00:00 15,7 C 76 % 1015,4 hPa 0,0 l/m 2,9 km/h (1 Bft) O-SO 11,4 C 15,7 C
16.08.2012 01:00 15,2 C 80 % 1015,4 hPa 0,0 l/m 4,2 km/h (1 Bft) O-SO 11,8 C 15,2 C
16.08.2012 02:00 14,9 C 85 % 1015,2 hPa 0,0 l/m 4,8 km/h (1 Bft) O-NO 12,3 C 14,9 C
16.08.2012 03:00 14,7 C 87 % 1015,1 hPa 0,0 l/m 5,0 km/h (1 Bft) O-SO 12,5 C 14,7 C
16.08.2012 04:00 14,5 C 89 % 1015,1 hPa 0,0 l/m 6,3 km/h (2 Bft) O-SO 12,7 C 14,5 C
16.08.2012 05:00 14,1 C 89 % 1015,1 hPa 0,0 l/m 4,0 km/h (1 Bft) O-NO 12,3 C 14,1 C
16.08.2012 06:00 14,1 C 90 % 1015,6 hPa 0,0 l/m 4,2 km/h (1 Bft) O-SO 12,5 C 14,1 C
16.08.2012 07:00 16,6 C 83 % 1015,9 hPa 0,0 l/m 5,9 km/h (2 Bft) O-SO 13,7 C 16,6 C
16.08.2012 08:00 17,3 C 82 % 1016,1 hPa 0,0 l/m 5,1 km/h (1 Bft) O-SO 14,1 C 17,3 C
16.08.2012 09:00 19,9 C 74 % 1016,6 hPa 0,0 l/m 4,0 km/h (1 Bft) S-SO 15,1 C 19,9 C
16.08.2012 10:00 21,1 C 70 % 1016,9 hPa 0,0 l/m 2,7 km/h (1 Bft) SO 15,3 C 21,1 C
16.08.2012 11:00 20,7 C 69 % 1017,4 hPa 0,0 l/m 3,5 km/h (1 Bft) SW 14,9 C 20,7 C
16.08.2012 12:00 19,0 C 75 % 1017,9 hPa 0,0 l/m 6,8 km/h (2 Bft) W-SW 14,5 C 19,0 C
16.08.2012 13:00 18,2 C 80 % 1018,4 hPa 0,5 l/m 2,3 km/h (1 Bft) W-SW 14,7 C 18,2 C
16.08.2012 14:00 17,9 C 84 % 1018,7 hPa 1,6 l/m 4,7 km/h (1 Bft) W-SW 15,2 C 17,9 C
16.08.2012 15:00 17,8 C 86 % 1018,8 hPa 0,0 l/m 3,6 km/h (1 Bft) W 15,4 C 17,8 C
16.08.2012 16:00 17,6 C 86 % 1019,2 hPa 0,0 l/m 3,5 km/h (1 Bft) W 15,3 C 17,6 C
16.08.2012 17:00 18,3 C 86 % 1019,3 hPa 0,0 l/m 3,8 km/h (1 Bft) W-NW 15,9 C 18,3 C
16.08.2012 18:00 18,6 C 85 % 1019,5 hPa 0,0 l/m 4,7 km/h (1 Bft) N-NO 16,0 C 18,6 C
16.08.2012 19:00 19,1 C 82 % 1019,6 hPa 0,0 l/m 2,0 km/h (1 Bft) N-NO 16,0 C 19,1 C
16.08.2012 20:00 17,9 C 84 % 1020,2 hPa 0,0 l/m 0,0 km/h (0 Bft) N 15,2 C 17,9 C
16.08.2012 21:00 16,2 C 86 % 1020,5 hPa 0,0 l/m 0,0 km/h (0 Bft) N 13,8 C 16,2 C
16.08.2012 22:00 14,8 C 87 % 1020,7 hPa 0,0 l/m 0,0 km/h (0 Bft) N 12,7 C 14,8 C
16.08.2012 23:00 14,0 C 89 % 1021,0 hPa 0,0 l/m 0,0 km/h (0 Bft) N 12,2 C 14,0 C
17.08.2012 00:00 13,5 C 90 % 1021,4 hPa 0,0 l/m 0,0 km/h (0 Bft) N 11,9 C 13,5 C
17.08.2012 01:00 13,1 C 90 % 1021,4 hPa 0,0 l/m 0,0 km/h (0 Bft) N 11,5 C 13,1 C
17.08.2012 02:00 12,6 C 91 % 1021,5 hPa 0,0 l/m 0,0 km/h (0 Bft) N 11,1 C 12,6 C
17.08.2012 03:00 12,5 C 91 % 1021,5 hPa 0,5 l/m 0,0 km/h (0 Bft) N 11,1 C 12,5 C
17.08.2012 04:00 12,5 C 91 % 1021,7 hPa 0,0 l/m 0,0 km/h (0 Bft) N 11,1 C 12,5 C
17.08.2012 05:00 12,4 C 91 % 1021,6 hPa 0,0 l/m 0,0 km/h (0 Bft) N 11,0 C 12,4 C
17.08.2012 06:00 12,3 C 92 % 1022,0 hPa 0,0 l/m 0,0 km/h (0 Bft) N 11,0 C 12,3 C
17.08.2012 07:00 13,2 C 91 % 1022,0 hPa 0,0 l/m 0,0 km/h (0 Bft) N 11,8 C 13,2 C
17.08.2012 08:00 16,1 C 88 % 1022,3 hPa 0,0 l/m 0,0 km/h (0 Bft) N 14,1 C 16,1 C
17.08.2012 09:00 18,5 C 83 % 1022,5 hPa 0,0 l/m 0,0 km/h (0 Bft) N 15,6 C 18,5 C
17.08.2012 10:00 21,0 C 73 % 1022,8 hPa 0,0 l/m 0,0 km/h (0 Bft) N 15,9 C 21,0 C
17.08.2012 11:00 22,8 C 64 % 1022,9 hPa 0,0 l/m 0,0 km/h (0 Bft) N 15,7 C 22,8 C
17.08.2012 12:00 24,3 C 59 % 1022,6 hPa 0,0 l/m 0,0 km/h (0 Bft) N 15,7 C 24,3 C
17.08.2012 13:00 25,1 C 55 % 1022,5 hPa 0,0 l/m 1,9 km/h (1 Bft) W 15,5 C 25,1 C
17.08.2012 14:00 25,5 C 52 % 1022,3 hPa 0,0 l/m 1,6 km/h (1 Bft) NW 14,9 C 25,5 C
17.08.2012 15:00 26,4 C 49 % 1022,1 hPa 0,0 l/m 2,4 km/h (1 Bft) S-SW 14,9 C 26,4 C
17.08.2012 16:00 27,3 C 45 % 1021,9 hPa 0,0 l/m 3,7 km/h (1 Bft) SW 14,5 C 27,3 C
17.08.2012 17:00 26,9 C 43 % 1021,6 hPa 0,0 l/m 1,7 km/h (1 Bft) W 13,4 C 26,9 C
17.08.2012 18:00 26,5 C 43 % 1021,4 hPa 0,0 l/m 2,0 km/h (1 Bft) SO 12,9 C 26,5 C
17.08.2012 19:00 24,5 C 49 % 1021,5 hPa 0,0 l/m 2,3 km/h (1 Bft) SO 13,2 C 24,5 C
17.08.2012 20:00 22,3 C 58 % 1021,6 hPa 0,0 l/m 1,3 km/h (1 Bft) SO 13,6 C 22,3 C
17.08.2012 21:00 20,2 C 65 % 1021,9 hPa 0,0 l/m 0,7 km/h (0 Bft) SO 13,4 C 20,2 C
17.08.2012 22:00 19,0 C 69 % 1022,1 hPa 0,0 l/m 0,0 km/h (0 Bft) N 13,1 C 19,0 C
17.08.2012 23:00 17,8 C 73 % 1022,5 hPa 0,0 l/m 0,0 km/h (0 Bft) N 12,8 C 17,8 C
18.08.2012 00:00 16,9 C 76 % 1022,6 hPa 0,0 l/m 0,0 km/h (0 Bft) N 12,6 C 16,9 C
18.08.2012 01:00 16,3 C 78 % 1022,5 hPa 0,0 l/m 0,0 km/h (0 Bft) N 12,5 C 16,3 C
18.08.2012 02:00 15,5 C 81 % 1022,3 hPa 0,0 l/m 0,0 km/h (0 Bft) N 12,2 C 15,5 C
18.08.2012 03:00 15,0 C 82 % 1022,5 hPa 0,0 l/m 0,0 km/h (0 Bft) N 12,0 C 15,0 C
18.08.2012 04:00 14,8 C 83 % 1022,5 hPa 0,0 l/m 0,0 km/h (0 Bft) N 11,9 C 14,8 C
18.08.2012 05:00 14,3 C 84 % 1022,3 hPa 0,0 l/m 0,0 km/h (0 Bft) N 11,7 C 14,3 C
18.08.2012 06:00 14,2 C 85 % 1022,5 hPa 0,0 l/m 1,0 km/h (0 Bft) O-SO 11,7 C 14,2 C
18.08.2012 07:00 16,5 C 80 % 1022,8 hPa 0,0 l/m 3,2 km/h (1 Bft) SO 13,0 C 16,5 C
18.08.2012 08:00 18,9 C 75 % 1022,9 hPa 0,0 l/m 1,4 km/h (1 Bft) SO 14,3 C 18,9 C
18.08.2012 09:00 21,8 C 65 % 1023,0 hPa 0,0 l/m 4,2 km/h (1 Bft) S-SO 15,0 C 21,8 C
18.08.2012 10:00 24,3 C 56 % 1023,0 hPa 0,0 l/m 5,4 km/h (1 Bft) S-SW 15,0 C 24,3 C
18.08.2012 11:00 26,4 C 49 % 1022,9 hPa 0,0 l/m 5,4 km/h (1 Bft) S-SO 14,7 C 26,4 C
18.08.2012 12:00 27,9 C 44 % 1022,6 hPa 0,0 l/m 8,0 km/h (2 Bft) S-SO 14,4 C 27,9 C
18.08.2012 13:00 29,1 C 41 % 1022,4 hPa 0,0 l/m 7,7 km/h (2 Bft) S-SW 14,3 C 29,1 C
18.08.2012 14:00 30,2 C 38 % 1022,0 hPa 0,0 l/m 6,5 km/h (2 Bft) SW 14,1 C 30,2 C
18.08.2012 15:00 30,8 C 36 % 1021,6 hPa 0,0 l/m 4,3 km/h (1 Bft) O-NO 14,0 C 30,8 C
18.08.2012 16:00 29,8 C 37 % 1021,4 hPa 0,0 l/m 6,1 km/h (2 Bft) S-SO 13,4 C 29,8 C
18.08.2012 17:00 29,2 C 38 % 1021,2 hPa 0,0 l/m 6,9 km/h (2 Bft) SO 13,2 C 29,2 C
18.08.2012 18:00 27,7 C 41 % 1021,0 hPa 0,0 l/m 6,6 km/h (2 Bft) SO 13,2 C 27,7 C
18.08.2012 19:00 26,4 C 45 % 1020,9 hPa 0,0 l/m 6,5 km/h (2 Bft) S-SO 13,7 C 26,4 C
18.08.2012 20:00 24,8 C 49 % 1020,9 hPa 0,0 l/m 3,3 km/h (1 Bft) SO 13,3 C 24,8 C
18.08.2012 21:00 22,7 C 55 % 1021,2 hPa 0,0 l/m 2,0 km/h (1 Bft) SO 13,2 C 22,7 C
18.08.2012 22:00 21,2 C 60 % 1020,9 hPa 0,0 l/m 4,9 km/h (1 Bft) SO 13,1 C 21,2 C
18.08.2012 23:00 20,5 C 62 % 1021,0 hPa 0,0 l/m 2,8 km/h (1 Bft) O-SO 13,0 C 20,5 C
19.08.2012 00:00 19,4 C 65 % 1020,8 hPa 0,0 l/m 1,9 km/h (1 Bft) SO 12,7 C 19,4 C
19.08.2012 01:00 18,6 C 67 % 1020,5 hPa 0,0 l/m 2,2 km/h (1 Bft) O-SO 12,3 C 18,6 C
19.08.2012 02:00 17,7 C 70 % 1020,2 hPa 0,0 l/m 2,7 km/h (1 Bft) O-SO 12,2 C 17,7 C
19.08.2012 03:00 17,1 C 72 % 1020,2 hPa 0,0 l/m 1,9 km/h (1 Bft) O-SO 12,0 C 17,1 C
19.08.2012 04:00 16,8 C 73 % 1020,1 hPa 0,0 l/m 3,0 km/h (1 Bft) SO 12,0 C 16,8 C
19.08.2012 05:00 16,1 C 75 % 1019,8 hPa 0,0 l/m 2,3 km/h (1 Bft) SO 11,7 C 16,1 C
19.08.2012 06:00 16,1 C 76 % 1020,0 hPa 0,0 l/m 0,4 km/h (0 Bft) O-SO 11,8 C 16,1 C
19.08.2012 07:00 19,4 C 67 % 1020,1 hPa 0,0 l/m 1,7 km/h (1 Bft) SO 13,1 C 19,4 C
19.08.2012 08:00 21,5 C 62 % 1020,1 hPa 0,0 l/m 3,4 km/h (1 Bft) S-SO 14,0 C 21,5 C
19.08.2012 09:00 24,2 C 57 % 1019,9 hPa 0,0 l/m 4,0 km/h (1 Bft) S-SO 15,1 C 24,2 C
19.08.2012 10:00 27,4 C 51 % 1019,8 hPa 0,0 l/m 3,2 km/h (1 Bft) S-SW 16,4 C 27,4 C
19.08.2012 11:00 30,1 C 45 % 1019,6 hPa 0,0 l/m 2,8 km/h (1 Bft) SW 16,9 C 30,1 C
19.08.2012 12:00 32,3 C 41 % 1019,0 hPa 0,0 l/m 6,8 km/h (2 Bft) S-SW 17,3 C 32,3 C
19.08.2012 13:00 33,9 C 37 % 1018,5 hPa 0,0 l/m 7,6 km/h (2 Bft) S-SW 17,3 C 33,9 C
19.08.2012 14:00 35,3 C 34 % 1018,1 hPa 0,0 l/m 8,0 km/h (2 Bft) S-SW 17,1 C 35,3 C
19.08.2012 15:00 36,3 C 32 % 1017,6 hPa 0,0 l/m 7,0 km/h (2 Bft) SW 16,9 C 36,3 C
19.08.2012 16:00 36,6 C 31 % 1016,9 hPa 0,0 l/m 7,9 km/h (2 Bft) SW 16,8 C 36,6 C
19.08.2012 17:00 36,4 C 32 % 1016,4 hPa 0,0 l/m 6,8 km/h (2 Bft) S 16,8 C 36,4 C
19.08.2012 18:00 35,3 C 31 % 1015,9 hPa 0,0 l/m 6,4 km/h (2 Bft) S-SW 15,7 C 35,3 C
19.08.2012 19:00 33,1 C 34 % 1015,8 hPa 0,0 l/m 2,8 km/h (1 Bft) S 15,1 C 33,1 C
19.08.2012 20:00 29,8 C 41 % 1015,8 hPa 0,0 l/m 1,3 km/h (1 Bft) S 15,0 C 29,8 C
19.08.2012 21:00 27,0 C 48 % 1015,9 hPa 0,0 l/m 0,0 km/h (0 Bft) N 15,0 C 27,0 C
19.08.2012 22:00 25,1 C 53 % 1015,9 hPa 0,0 l/m 0,3 km/h (0 Bft) SO 14,8 C 25,1 C
19.08.2012 23:00 23,8 C 56 % 1015,8 hPa 0,0 l/m 1,8 km/h (1 Bft) S-SO 14,6 C 23,8 C
Min-Datum _ 13.08.12 19.08.12 15.08.12 - 13.08.12 - 13.08.12 13.08.12
_ Min-Zeit 06:06 17:56 20:06 - 00:21 - 18:56 06:06
Minimum _ 10,4 C 30 % 1014,9 hPa - 0,0 km/h (0 Bft) - 7,6 C 10,4 C
Max-Datum _ 19.08.12 17.08.12 17.08.12 16.08.12 13.08.12 - 19.08.12 19.08.12
_ Max-Zeit 16:46 06:06 10:56 14:01 14:01 - 13:31 16:46
Maximum _ 36,8 C 92 % 1023,1 hPa 1,6 l/m 21,2 km/h
SO (4 Bft)
- 17,6 C 36,8 C
Durchschnitt _ 19,9 C 65 % 1019,3 hPa #2,6 l/m 3,7 km/h (1 Bft) O-SO 12,3 C 19,9 C
(c) by David Heller